createdAt,value
2022-12-18T00:00:30.993Z,26.23
2022-12-18T00:03:37.039Z,30.15
2022-12-18T00:06:39.649Z,26.80
2022-12-18T00:09:42.360Z,30.60
2022-12-18T00:12:44.635Z,29.03
2022-12-18T00:15:46.890Z,27.25
2022-12-18T00:18:50.220Z,31.67
2022-12-18T00:21:52.379Z,26.80
2022-12-18T00:24:54.823Z,29.43
2022-12-18T00:27:57.003Z,26.47
2022-12-18T00:31:06.229Z,29.45
2022-12-18T00:34:11.412Z,29.83
2022-12-18T00:37:20.034Z,29.13
2022-12-18T00:40:26.665Z,30.40
2022-12-18T00:43:29.665Z,29.43
2022-12-18T00:46:32.266Z,28.98
2022-12-18T00:49:34.443Z,28.60
2022-12-18T00:52:36.878Z,29.88
2022-12-18T00:55:40.740Z,27.67
2022-12-18T00:58:42.994Z,27.77
2022-12-18T01:01:46.102Z,30.65
2022-12-18T01:04:48.514Z,27.20
2022-12-18T01:07:54.484Z,29.63
2022-12-18T01:10:58.375Z,33.73
2022-12-18T01:14:01.354Z,28.07
2022-12-18T01:17:04.707Z,29.50
2022-12-18T01:20:09.866Z,28.02
2022-12-18T01:23:12.224Z,28.90
2022-12-18T01:26:16.554Z,30.93
2022-12-18T01:29:19.592Z,31.80
2022-12-18T01:32:23.081Z,35.25
2022-12-18T01:35:25.966Z,34.50
2022-12-18T01:38:30.449Z,34.20
2022-12-18T01:41:52.194Z,35.53
2022-12-18T01:44:58.740Z,31.53
2022-12-18T01:48:06.085Z,36.20
2022-12-18T01:51:11.050Z,29.83
2022-12-18T01:54:13.352Z,34.22
2022-12-18T01:57:15.892Z,34.40
2022-12-18T02:00:21.453Z,31.70
2022-12-18T02:03:23.747Z,33.05
2022-12-18T02:06:40.002Z,32.28
2022-12-18T02:09:48.698Z,30.50
2022-12-18T02:12:59.363Z,31.67
2022-12-18T02:16:25.120Z,29.30
2022-12-18T02:20:05.366Z,34.92
2022-12-18T02:23:16.652Z,31.42
2022-12-18T02:26:28.753Z,25.92
2022-12-18T02:29:37.011Z,36.00
2022-12-18T02:32:41.594Z,28.73
2022-12-18T02:35:45.729Z,36.30
2022-12-18T02:38:48.950Z,35.58
2022-12-18T02:41:54.706Z,39.88
2022-12-18T02:44:58.866Z,34.20
2022-12-18T02:48:02.200Z,38.37
2022-12-18T02:51:30.750Z,34.58
2022-12-18T02:54:44.797Z,33.78
2022-12-18T02:58:20.943Z,35.33
2022-12-18T03:01:34.612Z,35.13
2022-12-18T03:04:45.215Z,32.73
2022-12-18T03:07:56.951Z,37.22
2022-12-18T03:11:06.069Z,36.20
2022-12-18T03:14:10.542Z,31.88
2022-12-18T03:17:14.845Z,33.57
2022-12-18T03:20:21.023Z,35.73
2022-12-18T03:23:26.493Z,38.15
2022-12-18T03:26:30.708Z,36.53
2022-12-18T03:29:44.099Z,30.10
2022-12-18T03:33:18.834Z,43.77
2022-12-18T03:36:22.634Z,41.47
2022-12-18T03:39:26.869Z,34.72
2022-12-18T03:42:49.077Z,37.88
2022-12-18T03:45:59.306Z,42.38
2022-12-18T03:49:13.062Z,36.60
2022-12-18T03:52:22.628Z,39.10
2022-12-18T03:55:26.381Z,37.50
2022-12-18T03:58:36.703Z,43.05
2022-12-18T04:01:54.567Z,34.63
2022-12-18T04:05:00.945Z,37.67
2022-12-18T04:08:03.525Z,32.47
2022-12-18T04:11:09.136Z,35.30
2022-12-18T04:14:17.380Z,36.17
2022-12-18T04:17:20.574Z,36.58
2022-12-18T04:20:23.343Z,34.43
2022-12-18T04:23:25.944Z,41.90
2022-12-18T04:26:31.855Z,38.10
2022-12-18T04:29:47.054Z,37.88
2022-12-18T04:32:52.332Z,34.95
2022-12-18T04:35:56.079Z,33.57
2022-12-18T04:38:58.428Z,33.30
2022-12-18T04:42:01.034Z,34.90
2022-12-18T04:45:04.363Z,38.75
2022-12-18T04:48:07.429Z,37.45
2022-12-18T04:51:10.429Z,33.43
2022-12-18T04:54:13.415Z,38.90
2022-12-18T04:57:16.609Z,34.53
2022-12-18T05:00:19.700Z,56.13
2022-12-18T05:03:22.765Z,48.08
2022-12-18T05:06:25.786Z,37.00
2022-12-18T05:09:28.778Z,39.13
2022-12-18T05:12:32.894Z,38.85
2022-12-18T05:15:36.034Z,40.17
2022-12-18T05:18:39.593Z,41.00
2022-12-18T05:21:42.584Z,38.53
2022-12-18T05:24:45.676Z,44.13
2022-12-18T05:27:48.972Z,37.22
2022-12-18T05:30:53.728Z,41.38
2022-12-18T05:33:56.896Z,35.60
2022-12-18T05:36:59.890Z,38.97
2022-12-18T05:40:04.008Z,37.53
2022-12-18T05:43:06.994Z,34.55
2022-12-18T05:46:14.141Z,39.80
2022-12-18T05:49:17.277Z,34.70
2022-12-18T05:52:20.266Z,33.37
2022-12-18T05:55:23.257Z,36.47
2022-12-18T05:58:26.767Z,36.97
2022-12-18T06:01:29.765Z,36.33
2022-12-18T06:04:34.278Z,38.40
2022-12-18T06:07:36.967Z,37.70
2022-12-18T06:10:39.956Z,41.27
2022-12-18T06:13:43.127Z,45.90
2022-12-18T06:16:46.035Z,37.80
2022-12-18T06:19:49.033Z,35.78
2022-12-18T06:22:52.119Z,37.40
2022-12-18T06:25:55.216Z,48.27
2022-12-18T06:28:58.601Z,46.25
2022-12-18T06:32:02.374Z,47.10
2022-12-18T06:35:06.131Z,48.30
2022-12-18T06:38:09.528Z,41.60
2022-12-18T06:41:18.256Z,47.30
2022-12-18T06:44:21.451Z,44.55
2022-12-18T06:47:24.645Z,50.42
2022-12-18T06:50:27.840Z,47.08
2022-12-18T06:53:31.342Z,52.40
2022-12-18T06:56:34.235Z,50.13
2022-12-18T06:59:37.327Z,46.60
2022-12-18T07:02:40.464Z,56.03
2022-12-18T07:05:43.410Z,39.75
2022-12-18T07:08:47.220Z,52.73
2022-12-18T07:11:50.316Z,47.73
2022-12-18T07:14:53.412Z,52.47
2022-12-18T07:17:56.504Z,53.80
2022-12-18T07:20:59.492Z,55.95
2022-12-18T07:24:02.586Z,52.57
2022-12-18T07:27:05.466Z,52.83
2022-12-18T07:30:11.531Z,61.78
2022-12-18T07:33:13.945Z,52.08
2022-12-18T07:36:17.039Z,60.28
2022-12-18T07:39:20.130Z,51.43
2022-12-18T07:42:32.134Z,51.27
2022-12-18T07:45:35.108Z,51.13
2022-12-18T07:48:37.772Z,57.25
2022-12-18T07:51:40.059Z,68.00
2022-12-18T07:54:42.565Z,54.50
2022-12-18T07:57:56.412Z,53.40
2022-12-18T08:01:06.977Z,47.15
2022-12-18T08:04:09.673Z,58.95
2022-12-18T08:07:12.095Z,57.65
2022-12-18T08:10:14.515Z,55.53
2022-12-18T08:13:16.795Z,58.50
2022-12-18T08:16:19.653Z,60.95
2022-12-18T08:19:23.010Z,61.40
2022-12-18T08:22:25.395Z,59.10
2022-12-18T08:25:38.118Z,57.73
2022-12-18T08:28:41.248Z,62.23
2022-12-18T08:31:43.757Z,54.03
2022-12-18T08:34:46.000Z,46.88
2022-12-18T08:37:48.177Z,58.53
2022-12-18T08:40:51.965Z,48.33
2022-12-18T08:44:13.478Z,50.83
2022-12-18T08:47:15.744Z,49.53
2022-12-18T08:50:18.769Z,53.10
2022-12-18T08:53:24.696Z,50.45
2022-12-18T08:56:27.258Z,54.20
2022-12-18T08:59:32.461Z,45.37
2022-12-18T09:02:34.786Z,53.95
2022-12-18T09:05:37.035Z,52.42
2022-12-18T09:08:39.628Z,52.67
2022-12-18T09:11:42.151Z,53.07
2022-12-18T09:14:44.441Z,53.53
2022-12-18T09:17:46.665Z,47.33
2022-12-18T09:20:53.822Z,55.83
2022-12-18T09:23:58.920Z,45.05
2022-12-18T09:27:01.657Z,46.97
2022-12-18T09:30:04.381Z,54.60
2022-12-18T09:33:06.799Z,53.33
2022-12-18T09:36:11.200Z,50.35
2022-12-18T09:39:14.916Z,54.72
2022-12-18T09:42:24.017Z,47.77
2022-12-18T09:45:26.656Z,48.40
2022-12-18T09:48:36.381Z,45.28
2022-12-18T09:51:42.103Z,48.17
2022-12-18T09:54:51.247Z,56.15
2022-12-18T09:57:57.503Z,87.50
2022-12-18T10:00:59.983Z,49.00
2022-12-18T10:04:02.221Z,45.20
2022-12-18T10:07:22.176Z,55.13
2022-12-18T10:10:32.822Z,54.38
2022-12-18T10:13:41.430Z,42.73
2022-12-18T10:16:46.454Z,45.83
2022-12-18T10:20:02.080Z,50.88
2022-12-18T10:23:13.133Z,45.50
2022-12-18T10:26:15.537Z,36.75
2022-12-18T10:29:19.815Z,41.30
2022-12-18T10:32:28.256Z,44.00
2022-12-18T10:35:30.447Z,52.45
2022-12-18T10:38:33.269Z,48.40
2022-12-18T10:41:35.512Z,50.72
2022-12-18T10:44:37.726Z,50.17
2022-12-18T10:47:47.535Z,46.40
2022-12-18T10:54:22.830Z,58.30
2022-12-18T10:57:27.706Z,50.65
2022-12-18T11:00:34.512Z,49.77
2022-12-18T11:03:42.774Z,51.20
2022-12-18T11:07:00.249Z,49.45
2022-12-18T11:10:02.493Z,55.67
2022-12-18T11:13:31.133Z,50.47
2022-12-18T11:16:57.888Z,44.20
2022-12-18T11:20:08.591Z,44.73
2022-12-18T11:23:14.613Z,40.13
2022-12-18T11:26:17.005Z,35.40
2022-12-18T11:29:24.941Z,37.97
2022-12-18T11:32:40.833Z,32.63
2022-12-18T11:35:53.012Z,34.63
2022-12-18T11:38:56.755Z,34.45
2022-12-18T11:42:25.563Z,33.97
2022-12-18T11:45:32.606Z,38.78
2022-12-18T11:49:13.657Z,46.70
2022-12-18T11:52:35.489Z,41.47
2022-12-18T11:56:07.082Z,38.58
2022-12-18T11:59:51.211Z,39.60
2022-12-18T12:03:05.736Z,39.72
2022-12-18T12:06:32.445Z,37.43
2022-12-18T12:09:46.426Z,37.03
2022-12-18T12:12:54.873Z,39.90
2022-12-18T12:16:19.674Z,39.33
2022-12-18T12:19:40.009Z,39.28
2022-12-18T12:22:45.972Z,33.33
2022-12-18T12:26:12.601Z,32.70
2022-12-18T12:29:43.007Z,33.88
2022-12-18T12:33:08.342Z,38.15
2022-12-18T12:36:26.559Z,39.33
2022-12-18T12:39:35.291Z,33.57
2022-12-18T12:43:14.673Z,45.40
2022-12-18T12:46:19.780Z,47.13
2022-12-18T12:49:27.711Z,45.10
2022-12-18T12:52:36.401Z,41.30
2022-12-18T12:55:39.216Z,38.40
2022-12-18T12:58:50.174Z,52.33
2022-12-18T13:02:46.221Z,69.78
2022-12-18T13:05:55.634Z,57.67
2022-12-18T13:09:00.149Z,41.28
2022-12-18T13:12:29.345Z,38.80
2022-12-18T13:15:31.582Z,37.93
2022-12-18T13:18:36.261Z,32.92
2022-12-18T13:21:38.951Z,41.85
2022-12-18T13:24:41.100Z,35.00
2022-12-18T13:27:56.735Z,36.63
2022-12-18T13:30:59.404Z,36.03
2022-12-18T13:34:32.084Z,35.20
2022-12-18T13:37:53.409Z,35.72
2022-12-18T13:40:57.853Z,32.42
2022-12-18T13:44:18.994Z,32.83
2022-12-18T13:47:33.150Z,35.30
2022-12-18T13:50:36.518Z,39.38
2022-12-18T13:53:58.745Z,38.92
2022-12-18T13:57:00.918Z,37.83
2022-12-18T14:00:18.363Z,36.27
2022-12-18T14:03:27.569Z,38.80
2022-12-18T14:06:29.837Z,37.40
2022-12-18T14:09:41.105Z,38.03
2022-12-18T14:13:00.693Z,39.95
2022-12-18T14:16:09.098Z,39.93
2022-12-18T14:19:19.858Z,41.27
2022-12-18T14:22:40.454Z,46.38
2022-12-18T14:26:05.460Z,43.35
2022-12-18T14:29:28.927Z,33.67
2022-12-18T14:32:31.143Z,38.87
2022-12-18T14:35:36.146Z,34.70
2022-12-18T14:38:43.754Z,36.75
2022-12-18T14:41:49.820Z,36.85
2022-12-18T14:45:13.426Z,35.72
2022-12-18T14:48:32.656Z,36.57
2022-12-18T14:51:36.367Z,43.33
2022-12-18T14:54:41.094Z,38.58
2022-12-18T14:57:45.824Z,45.90
2022-12-18T15:00:49.440Z,56.67
2022-12-18T15:03:58.473Z,74.47
2022-12-18T15:07:25.830Z,57.47
2022-12-18T15:10:48.799Z,64.28
2022-12-18T15:13:51.947Z,63.13
2022-12-18T15:16:56.234Z,62.53
2022-12-18T15:20:06.103Z,72.10
2022-12-18T15:23:38.695Z,62.57
2022-12-18T15:26:42.462Z,75.00
2022-12-18T15:30:06.651Z,75.38
2022-12-18T15:33:28.435Z,88.90
2022-12-18T15:36:31.410Z,99.77
2022-12-18T15:39:37.771Z,95.07
2022-12-18T15:42:59.732Z,92.03
2022-12-18T15:46:15.367Z,78.57
2022-12-18T15:49:21.586Z,79.38
2022-12-18T15:52:27.420Z,89.83
2022-12-18T15:55:56.491Z,84.50
2022-12-18T15:59:07.342Z,80.30
2022-12-18T16:02:20.156Z,117.30
2022-12-18T16:05:25.138Z,96.78
2022-12-18T16:08:29.116Z,113.10
2022-12-18T16:11:40.623Z,104.17
2022-12-18T16:14:43.687Z,89.63
2022-12-18T16:17:49.120Z,70.13
2022-12-18T16:20:52.727Z,93.20
2022-12-18T16:23:55.940Z,87.90
2022-12-18T16:27:01.231Z,72.50
2022-12-18T16:30:05.300Z,74.50
2022-12-18T16:33:12.193Z,72.28
2022-12-18T16:36:18.446Z,68.65
2022-12-18T16:39:22.030Z,69.20
2022-12-18T16:42:26.426Z,76.00
2022-12-18T16:45:34.368Z,80.78
2022-12-18T16:48:37.420Z,65.97
2022-12-18T16:51:40.486Z,63.83
2022-12-18T16:54:43.290Z,67.03
2022-12-18T16:57:54.126Z,69.37
2022-12-18T17:00:57.608Z,54.90
2022-12-18T17:04:06.175Z,66.68
2022-12-18T17:07:09.942Z,70.05
2022-12-18T17:10:13.223Z,76.13
2022-12-18T17:13:16.393Z,70.87
2022-12-18T17:16:20.270Z,76.10
2022-12-18T17:19:25.547Z,139.70
2022-12-18T17:22:28.759Z,150.00
2022-12-18T17:25:32.239Z,136.67
2022-12-18T17:28:36.093Z,136.00
2022-12-18T17:31:40.040Z,113.10
2022-12-18T17:34:45.347Z,93.80
2022-12-18T17:37:49.337Z,77.82
2022-12-18T17:40:52.604Z,71.07
2022-12-18T17:44:03.124Z,77.50
2022-12-18T17:47:06.964Z,69.47
2022-12-18T17:50:12.041Z,75.20
2022-12-18T17:53:18.364Z,83.15
2022-12-18T17:56:24.153Z,77.87
2022-12-18T17:59:27.526Z,84.73
2022-12-18T18:02:30.996Z,94.50
2022-12-18T18:05:35.409Z,98.15
2022-12-18T18:08:39.933Z,77.07
2022-12-18T18:12:02.034Z,78.60
2022-12-18T18:15:05.904Z,105.80
2022-12-18T18:18:09.152Z,97.65
2022-12-18T18:21:13.841Z,94.70
2022-12-18T18:24:21.623Z,110.03
2022-12-18T18:27:24.406Z,108.23
2022-12-18T18:30:27.702Z,105.67
2022-12-18T18:33:31.129Z,115.95
2022-12-18T18:36:37.912Z,116.40
2022-12-18T18:39:42.104Z,122.75
2022-12-18T18:42:45.168Z,125.17
2022-12-18T18:45:48.605Z,122.63
2022-12-18T18:48:52.023Z,112.25
2022-12-18T18:51:56.123Z,111.75
2022-12-18T18:55:12.756Z,109.68
2022-12-18T18:58:16.616Z,126.60
2022-12-18T19:01:22.245Z,118.07
2022-12-18T19:04:25.648Z,108.53
2022-12-18T19:07:30.681Z,121.30
2022-12-18T19:10:34.028Z,110.05
2022-12-18T19:13:37.012Z,103.43
2022-12-18T19:16:42.256Z,108.47
2022-12-18T19:19:45.857Z,116.32
2022-12-18T19:22:55.618Z,161.68
2022-12-18T19:26:27.003Z,140.95
2022-12-18T19:29:27.986Z,123.07
2022-12-18T19:32:32.025Z,107.07
2022-12-18T19:35:36.725Z,120.38
2022-12-18T19:38:44.870Z,134.38
2022-12-18T19:41:50.611Z,142.65
2022-12-18T19:44:53.164Z,144.03
2022-12-18T19:48:01.043Z,162.67
2022-12-18T19:51:15.220Z,151.88
2022-12-18T19:54:19.013Z,140.38
2022-12-18T19:57:22.299Z,119.72
2022-12-18T20:00:25.452Z,146.83
2022-12-18T20:03:32.312Z,152.70
2022-12-18T20:06:46.585Z,189.73
2022-12-18T20:09:53.868Z,148.85
2022-12-18T20:13:02.553Z,161.82
2022-12-18T20:16:06.380Z,167.37
2022-12-18T20:19:11.364Z,151.00
2022-12-18T20:22:14.493Z,119.25
2022-12-18T20:25:17.592Z,117.18
2022-12-18T20:28:21.068Z,120.25
2022-12-18T20:31:25.370Z,104.97
2022-12-18T20:34:28.091Z,118.50
2022-12-18T20:37:31.289Z,123.65
2022-12-18T20:40:35.476Z,113.78
2022-12-18T20:43:39.376Z,106.60
2022-12-18T20:46:42.297Z,135.13
2022-12-18T20:49:45.750Z,146.87
2022-12-18T20:52:49.315Z,134.98
2022-12-18T20:55:52.004Z,148.27
2022-12-18T20:58:57.168Z,119.22
2022-12-18T21:02:00.023Z,129.87
2022-12-18T21:05:02.945Z,130.70
2022-12-18T21:08:05.968Z,120.95
2022-12-18T21:11:39.631Z,118.18
2022-12-18T21:14:43.846Z,113.68
2022-12-18T21:17:47.041Z,111.40
2022-12-18T21:20:50.536Z,116.00
2022-12-18T21:23:53.499Z,148.00
2022-12-18T21:26:58.535Z,99.05
2022-12-18T21:30:00.899Z,98.68
2022-12-18T21:33:03.383Z,103.03
2022-12-18T21:36:06.882Z,92.23
2022-12-18T21:39:09.130Z,99.25
2022-12-18T21:42:32.774Z,98.75
2022-12-18T21:45:35.356Z,95.85
2022-12-18T21:48:39.110Z,94.50
2022-12-18T21:51:41.620Z,90.83
2022-12-18T21:54:43.819Z,88.63
2022-12-18T21:57:46.625Z,99.15
2022-12-18T22:00:50.530Z,96.90
2022-12-18T22:03:53.145Z,93.13
2022-12-18T22:06:55.560Z,88.33
2022-12-18T22:09:57.970Z,91.72
2022-12-18T22:13:01.679Z,86.22
2022-12-18T22:16:04.211Z,100.97
2022-12-18T22:19:06.804Z,103.70
2022-12-18T22:22:08.970Z,215.60
2022-12-18T22:25:11.959Z,149.48
2022-12-18T22:28:33.168Z,178.68
2022-12-18T22:31:35.920Z,150.10
2022-12-18T22:34:38.698Z,283.53
2022-12-18T22:37:41.993Z,95.23
2022-12-18T22:40:44.388Z,105.43
2022-12-18T22:43:46.675Z,152.25
2022-12-18T22:47:06.640Z,118.40
2022-12-18T22:50:12.514Z,92.03
2022-12-18T22:53:14.771Z,109.03
2022-12-18T22:56:21.194Z,104.55
2022-12-18T22:59:23.969Z,109.18
2022-12-18T23:02:26.406Z,94.18
2022-12-18T23:05:30.318Z,96.27
2022-12-18T23:08:33.523Z,96.67
2022-12-18T23:11:36.406Z,107.00
2022-12-18T23:14:39.393Z,100.40
2022-12-18T23:17:41.805Z,97.93
2022-12-18T23:20:44.180Z,104.13
2022-12-18T23:23:46.630Z,83.83
2022-12-18T23:26:48.990Z,94.10
2022-12-18T23:29:51.170Z,113.78
2022-12-18T23:32:54.752Z,99.15
2022-12-18T23:36:04.018Z,98.07
2022-12-18T23:39:06.848Z,113.20
2022-12-18T23:42:09.061Z,133.30
2022-12-18T23:45:17.933Z,110.68
2022-12-18T23:48:21.244Z,119.60
2022-12-18T23:51:25.251Z,106.60
2022-12-18T23:54:33.232Z,103.13
2022-12-18T23:57:35.955Z,104.35
